createdAt,value
2023-09-17T00:01:24.963Z,92.20
2023-09-17T00:03:54.112Z,92.20
2023-09-17T00:06:22.385Z,92.20
2023-09-17T00:08:49.484Z,92.20
2023-09-17T00:11:18.871Z,92.20
2023-09-17T00:13:45.837Z,92.20
2023-09-17T00:16:13.098Z,92.20
2023-09-17T00:18:40.103Z,92.20
2023-09-17T00:21:07.953Z,92.20
2023-09-17T00:23:35.252Z,92.20
2023-09-17T00:26:03.342Z,92.20
2023-09-17T00:28:31.217Z,92.20
2023-09-17T00:30:58.201Z,92.20
2023-09-17T00:33:25.105Z,92.20
2023-09-17T00:35:52.086Z,92.20
2023-09-17T00:38:19.019Z,92.20
2023-09-17T00:40:45.974Z,92.20
2023-09-17T00:43:13.106Z,92.20
2023-09-17T00:45:42.770Z,92.20
2023-09-17T00:48:11.443Z,92.20
2023-09-17T00:50:40.946Z,92.20
2023-09-17T00:53:08.990Z,92.20
2023-09-17T00:55:36.472Z,92.20
2023-09-17T00:58:05.507Z,92.20
2023-09-17T01:00:38.295Z,92.20
2023-09-17T01:03:07.211Z,92.20
2023-09-17T01:05:53.455Z,92.20
2023-09-17T01:08:22.119Z,92.20
2023-09-17T01:10:50.425Z,92.20
2023-09-17T01:13:17.709Z,92.20
2023-09-17T01:15:44.760Z,92.20
2023-09-17T01:18:12.488Z,92.20
2023-09-17T01:21:02.312Z,92.20
2023-09-17T01:23:43.371Z,92.20
2023-09-17T01:26:26.198Z,92.20
2023-09-17T01:28:55.665Z,92.20
2023-09-17T01:31:26.012Z,92.20
2023-09-17T01:33:54.756Z,92.20
2023-09-17T01:36:37.209Z,92.20
2023-09-17T01:39:11.913Z,92.20
2023-09-17T01:41:40.267Z,92.20
2023-09-17T01:44:08.390Z,92.20
2023-09-17T01:46:37.319Z,92.20
2023-09-17T01:49:05.379Z,92.20
2023-09-17T01:51:32.823Z,92.20
2023-09-17T01:54:00.439Z,92.20
2023-09-17T01:56:28.145Z,92.20
2023-09-17T01:58:55.169Z,92.20
2023-09-17T02:01:23.209Z,92.20
2023-09-17T02:03:51.306Z,92.20
2023-09-17T02:06:18.469Z,92.20
2023-09-17T02:08:45.437Z,92.20
2023-09-17T02:11:12.355Z,92.20
2023-09-17T02:13:39.280Z,92.20
2023-09-17T02:16:06.371Z,92.20
2023-09-17T02:18:33.227Z,92.20
2023-09-17T02:21:00.190Z,92.20
2023-09-17T02:23:27.065Z,92.20
2023-09-17T02:25:53.942Z,92.20
2023-09-17T02:28:20.865Z,92.20
2023-09-17T02:30:48.676Z,92.20
2023-09-17T02:33:15.681Z,92.20
2023-09-17T02:35:42.515Z,92.20
2023-09-17T02:38:09.407Z,92.20
2023-09-17T02:40:36.332Z,92.20
2023-09-17T02:43:03.539Z,92.20
2023-09-17T02:45:30.492Z,92.20
2023-09-17T02:47:57.652Z,92.20
2023-09-17T02:50:24.603Z,92.20
2023-09-17T02:52:51.507Z,92.20
2023-09-17T02:55:19.594Z,92.20
2023-09-17T02:57:46.651Z,92.20
2023-09-17T03:00:14.954Z,92.20
2023-09-17T03:02:42.180Z,92.20
2023-09-17T03:05:12.170Z,92.20
2023-09-17T03:07:39.795Z,92.20
2023-09-17T03:10:12.355Z,92.20
2023-09-17T03:12:39.827Z,92.20
2023-09-17T03:15:08.268Z,92.20
2023-09-17T03:17:38.890Z,92.20
2023-09-17T03:20:15.474Z,92.20
2023-09-17T03:22:42.680Z,92.20
2023-09-17T03:25:09.805Z,92.20
2023-09-17T03:27:40.177Z,92.20
2023-09-17T03:30:07.878Z,92.20
2023-09-17T03:32:36.585Z,92.20
2023-09-17T03:35:07.656Z,92.20
2023-09-17T03:37:34.779Z,92.20
2023-09-17T03:40:13.109Z,92.20
2023-09-17T03:42:41.134Z,92.20
2023-09-17T03:45:10.968Z,92.20
2023-09-17T03:47:39.519Z,92.20
2023-09-17T03:50:07.536Z,92.20
2023-09-17T03:52:36.457Z,92.20
2023-09-17T03:55:07.151Z,92.20
2023-09-17T03:57:38.604Z,92.20
2023-09-17T04:00:08.113Z,92.20
2023-09-17T04:02:43.326Z,92.20
2023-09-17T04:05:13.807Z,92.20
2023-09-17T04:07:43.125Z,92.20
2023-09-17T04:10:10.316Z,92.20
2023-09-17T04:12:38.786Z,92.20
2023-09-17T04:15:14.371Z,92.20
2023-09-17T04:17:41.755Z,92.20
2023-09-17T04:20:12.428Z,92.20
2023-09-17T04:22:39.599Z,92.20
2023-09-17T04:25:06.584Z,92.20
2023-09-17T04:27:33.458Z,92.20
2023-09-17T04:30:00.270Z,92.20
2023-09-17T04:32:27.421Z,92.20
2023-09-17T04:34:55.202Z,92.20
2023-09-17T04:37:23.195Z,92.20
2023-09-17T04:39:50.794Z,92.20
2023-09-17T04:42:18.405Z,92.20
2023-09-17T04:44:45.851Z,92.20
2023-09-17T04:47:12.835Z,92.20
2023-09-17T04:49:39.755Z,92.20
2023-09-17T04:52:08.436Z,92.20
2023-09-17T04:54:35.288Z,92.20
2023-09-17T04:57:02.677Z,92.20
2023-09-17T04:59:30.457Z,92.20
2023-09-17T05:01:57.398Z,92.20
2023-09-17T05:04:25.599Z,92.20
2023-09-17T05:06:52.601Z,92.20
2023-09-17T05:09:20.491Z,92.20
2023-09-17T05:11:47.482Z,92.20
2023-09-17T05:14:14.445Z,92.20
2023-09-17T05:16:41.933Z,92.20
2023-09-17T05:19:09.105Z,92.20
2023-09-17T05:21:35.958Z,92.20
2023-09-17T05:24:02.807Z,92.20
2023-09-17T05:26:29.649Z,92.20
2023-09-17T05:28:56.569Z,92.20
2023-09-17T05:31:23.652Z,92.20
2023-09-17T05:33:51.511Z,92.20
2023-09-17T05:36:18.712Z,92.20
2023-09-17T05:38:45.707Z,92.20
2023-09-17T05:41:13.416Z,92.20
2023-09-17T05:43:41.453Z,92.20
2023-09-17T05:46:08.643Z,92.20
2023-09-17T05:48:36.034Z,92.20
2023-09-17T05:51:04.801Z,92.20
2023-09-17T05:53:32.444Z,92.20
2023-09-17T05:55:59.503Z,92.20
2023-09-17T05:58:26.477Z,92.20
2023-09-17T06:00:54.817Z,92.20
2023-09-17T06:03:22.388Z,92.20
2023-09-17T06:05:50.732Z,92.20
2023-09-17T06:08:17.819Z,92.20
2023-09-17T06:10:44.746Z,92.20
2023-09-17T06:13:11.907Z,92.20
2023-09-17T06:15:38.903Z,92.20
2023-09-17T06:18:06.140Z,92.20
2023-09-17T06:20:33.313Z,92.20
2023-09-17T06:23:00.586Z,92.20
2023-09-17T06:25:28.300Z,92.20
2023-09-17T06:27:55.650Z,92.20
2023-09-17T06:30:23.337Z,92.20
2023-09-17T06:32:51.083Z,92.20
2023-09-17T06:35:18.121Z,92.20
2023-09-17T06:37:44.982Z,92.20
2023-09-17T06:40:15.208Z,92.20
2023-09-17T06:42:42.166Z,92.20
2023-09-17T06:45:09.529Z,92.20
2023-09-17T06:47:36.731Z,92.20
2023-09-17T06:50:03.784Z,92.20
2023-09-17T06:52:30.656Z,92.20
2023-09-17T06:54:57.606Z,92.20
2023-09-17T06:57:24.731Z,92.20
2023-09-17T06:59:51.623Z,92.20
2023-09-17T07:02:22.472Z,92.20
2023-09-17T07:04:49.563Z,92.20
2023-09-17T07:07:16.546Z,92.20
2023-09-17T07:09:49.180Z,92.20
2023-09-17T07:12:17.783Z,92.20
2023-09-17T07:14:44.713Z,92.20
2023-09-17T07:17:11.780Z,92.20
2023-09-17T07:19:39.470Z,92.20
2023-09-17T07:22:13.161Z,92.20
2023-09-17T07:24:40.787Z,92.20
2023-09-17T07:27:07.819Z,92.20
2023-09-17T07:29:34.676Z,92.20
2023-09-17T07:32:01.810Z,92.20
2023-09-17T07:34:28.771Z,92.20
2023-09-17T07:36:55.743Z,92.20
2023-09-17T07:39:22.840Z,92.20
2023-09-17T07:41:49.717Z,92.20
2023-09-17T07:44:16.705Z,92.20
2023-09-17T07:46:43.636Z,92.20
2023-09-17T07:49:10.610Z,92.20
2023-09-17T07:51:37.505Z,92.20
2023-09-17T07:54:04.526Z,92.20
2023-09-17T07:56:31.554Z,92.20
2023-09-17T07:58:59.385Z,92.20
2023-09-17T08:01:26.283Z,92.20
2023-09-17T08:03:53.416Z,92.20
2023-09-17T08:06:20.568Z,92.20
2023-09-17T08:08:48.724Z,91.60
2023-09-17T08:11:16.987Z,92.20
2023-09-17T08:13:43.931Z,92.20
2023-09-17T08:16:11.200Z,91.70
2023-09-17T08:18:38.491Z,90.60
2023-09-17T08:21:05.583Z,90.10
2023-09-17T08:23:32.548Z,90.60
2023-09-17T08:26:00.422Z,90.90
2023-09-17T08:28:27.427Z,89.60
2023-09-17T08:30:54.467Z,88.20
2023-09-17T08:33:21.463Z,87.50
2023-09-17T08:35:48.421Z,86.80
2023-09-17T08:38:15.552Z,86.90
2023-09-17T08:40:42.755Z,87.40
2023-09-17T08:43:14.425Z,86.80
2023-09-17T08:45:42.931Z,86.00
2023-09-17T08:48:10.260Z,86.40
2023-09-17T08:50:38.312Z,85.40
2023-09-17T08:53:08.612Z,85.90
2023-09-17T08:55:36.133Z,85.40
2023-09-17T08:58:23.116Z,85.40
2023-09-17T09:00:57.001Z,85.10
2023-09-17T09:03:26.308Z,84.80
2023-09-17T09:05:56.648Z,84.50
2023-09-17T09:08:25.969Z,83.00
2023-09-17T09:10:53.166Z,82.50
2023-09-17T09:13:22.223Z,83.30
2023-09-17T09:15:49.231Z,82.10
2023-09-17T09:18:16.524Z,83.20
2023-09-17T09:20:43.695Z,83.30
2023-09-17T09:23:10.655Z,82.70
2023-09-17T09:25:37.655Z,81.50
2023-09-17T09:28:05.478Z,81.20
2023-09-17T09:30:32.536Z,80.50
2023-09-17T09:32:59.848Z,81.70
2023-09-17T09:35:26.952Z,82.20
2023-09-17T09:37:57.218Z,81.00
2023-09-17T09:40:25.665Z,79.70
2023-09-17T09:42:52.682Z,79.30
2023-09-17T09:45:19.910Z,78.50
2023-09-17T09:47:51.064Z,78.00
2023-09-17T09:50:28.917Z,78.60
2023-09-17T09:52:56.377Z,76.50
2023-09-17T09:55:28.801Z,76.20
2023-09-17T09:57:56.789Z,77.40
2023-09-17T10:00:28.033Z,75.60
2023-09-17T10:02:55.948Z,75.50
2023-09-17T10:05:38.428Z,76.70
2023-09-17T10:08:06.053Z,75.90
2023-09-17T10:10:33.613Z,76.40
2023-09-17T10:13:06.633Z,76.40
2023-09-17T10:15:35.978Z,75.40
2023-09-17T10:18:03.539Z,75.80
2023-09-17T10:20:31.458Z,76.10
2023-09-17T10:23:00.330Z,76.80
2023-09-17T10:25:29.642Z,74.90
2023-09-17T10:27:57.830Z,75.40
2023-09-17T10:30:25.850Z,75.50
2023-09-17T10:32:53.458Z,74.50
2023-09-17T10:35:20.448Z,74.30
2023-09-17T10:37:48.434Z,75.80
2023-09-17T10:40:16.705Z,73.10
2023-09-17T10:42:45.694Z,73.20
2023-09-17T10:45:13.304Z,72.30
2023-09-17T10:47:42.006Z,74.10
2023-09-17T10:50:18.415Z,73.80
2023-09-17T10:52:45.688Z,72.00
2023-09-17T10:55:13.085Z,73.00
2023-09-17T10:57:48.364Z,74.30
2023-09-17T11:00:19.714Z,72.60
2023-09-17T11:02:53.152Z,72.10
2023-09-17T11:05:24.065Z,71.60
2023-09-17T11:07:53.728Z,71.20
2023-09-17T11:10:31.217Z,73.20
2023-09-17T11:13:00.425Z,73.30
2023-09-17T11:15:27.663Z,71.90
2023-09-17T11:18:03.063Z,71.20
2023-09-17T11:20:30.371Z,71.20
2023-09-17T11:22:58.221Z,70.90
2023-09-17T11:25:39.565Z,70.20
2023-09-17T11:28:14.463Z,72.30
2023-09-17T11:31:03.875Z,73.90
2023-09-17T11:33:31.730Z,74.80
2023-09-17T11:36:01.623Z,73.80
2023-09-17T11:38:30.744Z,73.10
2023-09-17T11:41:09.318Z,73.80
2023-09-17T11:43:39.045Z,73.30
2023-09-17T11:46:11.253Z,73.80
2023-09-17T11:48:39.124Z,72.70
2023-09-17T11:51:25.876Z,73.00
2023-09-17T11:54:10.473Z,73.10
2023-09-17T11:56:47.872Z,73.40
2023-09-17T11:59:17.319Z,73.70
2023-09-17T12:01:54.147Z,74.00
2023-09-17T12:04:30.382Z,74.90
2023-09-17T12:06:58.680Z,76.80
2023-09-17T12:10:01.944Z,77.10
2023-09-17T12:12:33.151Z,77.90
2023-09-17T12:15:00.301Z,79.10
2023-09-17T12:17:28.166Z,78.60
2023-09-17T12:21:03.286Z,79.40
2023-09-17T12:24:05.997Z,79.30
2023-09-17T12:27:00.450Z,79.60
2023-09-17T12:29:27.247Z,80.00
2023-09-17T12:31:54.660Z,79.90
2023-09-17T12:34:21.482Z,79.30
2023-09-17T12:36:48.411Z,79.10
2023-09-17T12:39:16.339Z,79.10
2023-09-17T12:41:44.096Z,79.40
2023-09-17T12:44:12.100Z,79.90
2023-09-17T12:46:40.185Z,79.20
2023-09-17T12:49:08.495Z,79.30
2023-09-17T12:51:38.400Z,79.60
2023-09-17T12:54:06.991Z,79.90
2023-09-17T12:56:34.279Z,79.40
2023-09-17T12:59:02.124Z,80.40
2023-09-17T13:01:31.712Z,79.80
2023-09-17T13:04:03.000Z,79.70
2023-09-17T13:06:36.516Z,80.20
2023-09-17T13:09:03.819Z,80.90
2023-09-17T13:11:31.323Z,80.90
2023-09-17T13:13:59.388Z,82.40
2023-09-17T13:16:26.415Z,81.20
2023-09-17T13:18:53.595Z,81.30
2023-09-17T13:21:21.347Z,79.40
2023-09-17T13:23:49.117Z,79.90
2023-09-17T13:26:16.410Z,79.30
2023-09-17T13:28:43.414Z,79.50
2023-09-17T13:31:12.324Z,80.80
2023-09-17T13:33:40.124Z,79.60
2023-09-17T13:36:11.395Z,80.70
2023-09-17T13:38:43.031Z,80.60
2023-09-17T13:41:10.386Z,79.80
2023-09-17T13:43:38.270Z,81.20
2023-09-17T13:46:05.267Z,80.80
2023-09-17T13:48:32.412Z,83.00
2023-09-17T13:50:59.353Z,80.80
2023-09-17T13:53:26.399Z,79.70
2023-09-17T13:55:53.420Z,80.40
2023-09-17T13:58:20.445Z,80.00
2023-09-17T14:00:47.266Z,80.40
2023-09-17T14:03:15.529Z,81.00
2023-09-17T14:05:43.969Z,80.20
2023-09-17T14:08:11.421Z,76.30
2023-09-17T14:10:38.602Z,77.40
2023-09-17T14:13:05.943Z,78.20
2023-09-17T14:15:37.550Z,77.30
2023-09-17T14:18:04.583Z,77.70
2023-09-17T14:20:31.602Z,77.80
2023-09-17T14:22:58.622Z,78.00
2023-09-17T14:25:25.477Z,76.70
2023-09-17T14:27:53.102Z,77.50
2023-09-17T14:30:30.298Z,76.40
2023-09-17T14:32:59.172Z,76.70
2023-09-17T14:35:27.606Z,77.10
2023-09-17T14:37:55.815Z,77.30
2023-09-17T14:40:22.778Z,78.50
2023-09-17T14:42:49.785Z,78.90
2023-09-17T14:45:16.867Z,77.90
2023-09-17T14:47:44.612Z,79.60
2023-09-17T14:50:12.925Z,79.10
2023-09-17T14:52:39.992Z,78.00
2023-09-17T14:55:07.392Z,78.60
2023-09-17T14:57:38.098Z,78.70
2023-09-17T15:00:06.207Z,78.70
2023-09-17T15:02:34.418Z,78.70
2023-09-17T15:05:02.102Z,78.70
2023-09-17T15:07:29.082Z,78.60
2023-09-17T15:09:55.918Z,78.70
2023-09-17T15:12:23.162Z,79.90
2023-09-17T15:14:50.388Z,78.80
2023-09-17T15:17:17.392Z,80.10
2023-09-17T15:19:44.286Z,78.40
2023-09-17T15:22:11.356Z,78.70
2023-09-17T15:24:38.621Z,79.00
2023-09-17T15:27:05.589Z,79.00
2023-09-17T15:29:32.836Z,79.10
2023-09-17T15:32:01.100Z,79.30
2023-09-17T15:34:29.210Z,79.00
2023-09-17T15:36:56.254Z,79.00
2023-09-17T15:39:25.715Z,79.50
2023-09-17T15:41:53.637Z,80.20
2023-09-17T15:44:22.780Z,80.90
2023-09-17T15:46:49.901Z,81.50
2023-09-17T15:49:16.986Z,81.40
2023-09-17T15:51:43.869Z,81.60
2023-09-17T15:54:10.840Z,81.80
2023-09-17T15:56:37.807Z,82.10
2023-09-17T15:59:05.119Z,81.90
2023-09-17T16:01:32.151Z,82.50
2023-09-17T16:03:59.288Z,82.60
2023-09-17T16:06:26.397Z,82.50
2023-09-17T16:08:54.216Z,83.10
2023-09-17T16:11:21.592Z,83.00
2023-09-17T16:13:48.707Z,83.20
2023-09-17T16:16:15.766Z,83.30
2023-09-17T16:18:43.218Z,84.00
2023-09-17T16:21:11.074Z,84.20
2023-09-17T16:23:38.022Z,84.50
2023-09-17T16:26:05.035Z,84.70
2023-09-17T16:28:32.218Z,84.90
2023-09-17T16:30:59.040Z,84.80
2023-09-17T16:33:26.064Z,85.00
2023-09-17T16:35:53.376Z,85.30
2023-09-17T16:38:20.941Z,85.40
2023-09-17T16:40:48.372Z,85.80
2023-09-17T16:43:19.153Z,86.30
2023-09-17T16:45:46.132Z,88.10
2023-09-17T16:48:13.229Z,89.20
2023-09-17T16:50:40.182Z,90.00
2023-09-17T16:53:08.037Z,90.80
2023-09-17T16:55:37.270Z,91.50
2023-09-17T16:58:04.884Z,91.90
2023-09-17T17:00:32.296Z,92.10
2023-09-17T17:02:59.644Z,92.20
2023-09-17T17:05:26.814Z,92.20
2023-09-17T17:07:53.800Z,92.20
2023-09-17T17:10:21.228Z,92.20
2023-09-17T17:12:48.258Z,92.20
2023-09-17T17:15:15.106Z,92.20
2023-09-17T17:17:42.133Z,92.20
2023-09-17T17:20:09.619Z,92.20
2023-09-17T17:22:47.132Z,92.20
2023-09-17T17:25:14.228Z,92.20
2023-09-17T17:27:41.701Z,92.20
2023-09-17T17:30:11.433Z,92.20
2023-09-17T17:32:40.988Z,92.20
2023-09-17T17:35:08.997Z,92.20
2023-09-17T17:37:36.007Z,92.20
2023-09-17T17:40:02.854Z,92.20
2023-09-17T17:42:29.788Z,92.20
2023-09-17T17:44:57.147Z,92.20
2023-09-17T17:47:25.152Z,92.20
2023-09-17T17:49:54.487Z,92.20
2023-09-17T17:52:22.105Z,92.20
2023-09-17T17:54:49.702Z,92.20
2023-09-17T17:57:18.666Z,92.20
2023-09-17T17:59:46.413Z,92.20
2023-09-17T18:02:14.546Z,92.20
2023-09-17T18:04:41.867Z,92.20
2023-09-17T18:07:09.006Z,92.20
2023-09-17T18:09:35.855Z,92.20
2023-09-17T18:12:03.833Z,92.20
2023-09-17T18:14:31.313Z,92.20
2023-09-17T18:16:58.549Z,92.20
2023-09-17T18:19:25.462Z,92.20
2023-09-17T18:21:52.410Z,92.20
2023-09-17T18:24:21.926Z,92.20
2023-09-17T18:26:48.746Z,92.20
2023-09-17T18:29:15.702Z,92.20
2023-09-17T18:31:42.595Z,92.20
2023-09-17T18:34:09.383Z,92.20
2023-09-17T18:36:36.279Z,92.20
2023-09-17T18:39:03.090Z,92.20
2023-09-17T18:41:30.025Z,92.20
2023-09-17T18:43:56.943Z,92.20
2023-09-17T18:46:25.446Z,92.20
2023-09-17T18:48:52.308Z,92.20
2023-09-17T18:51:21.665Z,92.20
2023-09-17T18:53:48.771Z,92.20
2023-09-17T18:56:16.177Z,92.20
2023-09-17T18:58:43.070Z,92.20
2023-09-17T19:01:10.700Z,92.20
2023-09-17T19:03:37.699Z,92.20
2023-09-17T19:06:04.749Z,92.20
2023-09-17T19:08:31.858Z,92.20
2023-09-17T19:10:58.906Z,92.20
2023-09-17T19:13:25.862Z,92.20
2023-09-17T19:15:54.894Z,92.20
2023-09-17T19:18:21.808Z,92.20
2023-09-17T19:20:49.784Z,92.20
2023-09-17T19:23:16.903Z,92.20
2023-09-17T19:25:43.831Z,92.20
2023-09-17T19:28:10.805Z,92.20
2023-09-17T19:30:37.783Z,92.20
2023-09-17T19:33:05.331Z,92.20
2023-09-17T19:35:32.191Z,92.20
2023-09-17T19:37:59.158Z,92.20
2023-09-17T19:40:26.125Z,92.20
2023-09-17T19:42:53.004Z,92.20
2023-09-17T19:45:19.836Z,92.20
2023-09-17T19:47:46.780Z,92.20
2023-09-17T19:50:15.723Z,92.20
2023-09-17T19:52:42.712Z,92.20
2023-09-17T19:55:09.572Z,92.20
2023-09-17T19:57:36.963Z,92.20
2023-09-17T20:00:11.720Z,92.20
2023-09-17T20:02:38.933Z,92.20
2023-09-17T20:05:09.470Z,92.20
2023-09-17T20:07:38.512Z,92.20
2023-09-17T20:10:14.785Z,92.20
2023-09-17T20:12:43.263Z,92.20
2023-09-17T20:15:10.365Z,92.20
2023-09-17T20:17:37.287Z,92.20
2023-09-17T20:20:06.665Z,92.20
2023-09-17T20:22:42.473Z,92.20
2023-09-17T20:25:10.354Z,92.20
2023-09-17T20:27:37.570Z,92.20
2023-09-17T20:30:13.473Z,92.20
2023-09-17T20:32:40.638Z,92.20
2023-09-17T20:35:07.900Z,92.20
2023-09-17T20:37:34.719Z,92.20
2023-09-17T20:40:02.934Z,92.20
2023-09-17T20:42:29.857Z,92.20
2023-09-17T20:44:56.992Z,92.20
2023-09-17T20:47:29.041Z,92.20
2023-09-17T20:49:56.112Z,92.20
2023-09-17T20:52:22.963Z,92.20
2023-09-17T20:54:49.889Z,92.20
2023-09-17T20:57:19.516Z,92.20
2023-09-17T20:59:46.454Z,92.20
2023-09-17T21:02:13.563Z,92.20
2023-09-17T21:04:45.438Z,92.20
2023-09-17T21:07:12.275Z,92.20
2023-09-17T21:09:39.360Z,92.20
2023-09-17T21:12:06.558Z,92.20
2023-09-17T21:14:33.397Z,92.20
2023-09-17T21:17:00.538Z,92.20
2023-09-17T21:19:27.422Z,92.20
2023-09-17T21:21:54.238Z,92.20
2023-09-17T21:24:21.438Z,92.20
2023-09-17T21:26:48.326Z,92.20
2023-09-17T21:29:15.162Z,92.20
2023-09-17T21:31:42.334Z,92.20
2023-09-17T21:34:09.189Z,92.20
2023-09-17T21:36:36.030Z,92.20
2023-09-17T21:39:03.760Z,92.20
2023-09-17T21:41:31.946Z,92.20
2023-09-17T21:44:00.086Z,92.20
2023-09-17T21:46:30.319Z,92.20
2023-09-17T21:49:00.271Z,92.20
2023-09-17T21:51:27.140Z,92.20
2023-09-17T21:53:54.012Z,92.20
2023-09-17T21:56:21.345Z,92.20
2023-09-17T21:58:48.213Z,92.20
2023-09-17T22:01:15.148Z,92.20
2023-09-17T22:03:42.314Z,92.20
2023-09-17T22:06:09.416Z,92.20
2023-09-17T22:08:36.357Z,92.20
2023-09-17T22:11:07.105Z,92.20
2023-09-17T22:13:34.853Z,92.20
2023-09-17T22:16:01.842Z,92.20
2023-09-17T22:18:28.767Z,92.20
2023-09-17T22:21:05.612Z,92.20
2023-09-17T22:23:32.552Z,92.20
2023-09-17T22:26:00.334Z,92.20
2023-09-17T22:28:28.093Z,92.20
2023-09-17T22:30:54.992Z,92.20
2023-09-17T22:33:22.002Z,92.20
2023-09-17T22:35:49.398Z,92.20
2023-09-17T22:38:16.394Z,92.20
2023-09-17T22:40:43.302Z,92.20
2023-09-17T22:43:10.378Z,92.20
2023-09-17T22:45:40.474Z,92.20
2023-09-17T22:48:07.459Z,92.20
2023-09-17T22:50:34.391Z,92.20
2023-09-17T22:53:01.251Z,92.20
2023-09-17T22:55:28.150Z,92.20
2023-09-17T22:57:54.965Z,92.20
2023-09-17T23:00:22.480Z,92.20
2023-09-17T23:02:49.587Z,92.20
2023-09-17T23:05:18.320Z,92.20
2023-09-17T23:07:45.287Z,92.20
2023-09-17T23:10:12.265Z,92.20
2023-09-17T23:12:39.118Z,92.20
2023-09-17T23:15:06.305Z,92.20
2023-09-17T23:17:33.179Z,92.20
2023-09-17T23:20:00.133Z,92.20
2023-09-17T23:22:27.763Z,92.20
2023-09-17T23:24:55.178Z,92.20
2023-09-17T23:27:22.298Z,92.20
2023-09-17T23:29:50.830Z,92.20
2023-09-17T23:32:18.131Z,92.20
2023-09-17T23:34:45.192Z,92.20
2023-09-17T23:37:13.138Z,92.20
2023-09-17T23:39:44.524Z,92.20
2023-09-17T23:42:13.052Z,92.20
2023-09-17T23:44:39.927Z,92.20
2023-09-17T23:47:06.941Z,92.20
2023-09-17T23:49:34.054Z,92.20
2023-09-17T23:52:00.951Z,92.20
2023-09-17T23:54:27.793Z,92.20
2023-09-17T23:56:54.644Z,92.20
2023-09-17T23:59:22.763Z,92.20
